Time;durP1;ratioP1;P1;durP2;ratioP2;P2;SDS_P1;SDS_P2;PMS_P1;PMS_P2;Temp;Humidity;BMP_temperature;BMP_pressure;BME280_temperature;BME280_humidity;BME280_pressure;Samples;Min_cycle;Max_cycle;Signal;HPM_P1;HPM_P2
2020/12/15 00:01:06;;;;;;;3.92;1.10;;;15.00;69.60;;;;;;4973570;28;20026;-60
2020/12/15 00:03:31;;;;;;;2.60;1.35;;;15.00;69.60;;;;;;4973539;28;20030;-60
2020/12/15 00:06:17;;;;;;;2.38;0.85;;;15.00;69.60;;;;;;4974114;28;20461;-60
2020/12/15 00:08:43;;;;;;;1.60;1.00;;;15.10;69.70;;;;;;4973560;28;20034;-60
2020/12/15 00:11:09;;;;;;;2.13;1.27;;;15.00;69.50;;;;;;4973391;28;20441;-61
2020/12/15 00:13:34;;;;;;;1.35;1.13;;;15.00;69.60;;;;;;4973575;28;20038;-60
2020/12/15 00:16:00;;;;;;;1.85;1.17;;;15.00;69.60;;;;;;4973337;28;20151;-60
2020/12/15 00:18:25;;;;;;;1.05;0.98;;;14.90;69.60;;;;;;4973438;28;20075;-60
2020/12/15 00:20:51;;;;;;;1.70;1.02;;;15.00;69.60;;;;;;4973376;28;20386;-60
2020/12/15 00:23:17;;;;;;;1.38;0.90;;;14.90;69.60;;;;;;4973404;28;20572;-60
2020/12/15 00:25:42;;;;;;;1.30;1.10;;;15.00;69.60;;;;;;4973379;28;20073;-61
2020/12/15 00:28:08;;;;;;;2.33;1.23;;;14.90;69.50;;;;;;4973293;28;20026;-60
2020/12/15 00:30:33;;;;;;;0.93;0.80;;;15.00;69.60;;;;;;4975217;28;20035;-60
2020/12/15 00:32:59;;;;;;;1.48;1.00;;;14.90;69.60;;;;;;4976793;28;20022;-60
2020/12/15 00:35:25;;;;;;;1.45;1.13;;;14.90;69.50;;;;;;4976795;28;20369;-60
2020/12/15 00:37:50;;;;;;;1.95;0.90;;;14.90;69.50;;;;;;4976489;28;20114;-60
2020/12/15 00:40:16;;;;;;;2.53;1.00;;;14.90;69.50;;;;;;4976611;28;20030;-60
2020/12/15 00:42:42;;;;;;;1.52;0.90;;;14.90;69.50;;;;;;4976581;28;20023;-60
2020/12/15 00:45:07;;;;;;;1.67;1.17;;;14.90;69.50;;;;;;4976643;28;20027;-61
2020/12/15 00:47:33;;;;;;;1.67;1.30;;;14.90;69.50;;;;;;4976536;28;20031;-60
2020/12/15 00:49:58;;;;;;;2.08;0.90;;;14.90;69.50;;;;;;4976386;28;20035;-60
2020/12/15 00:52:29;;;;;;;0.95;0.93;;;14.90;69.40;;;;;;4976455;28;20022;-61
2020/12/15 00:54:54;;;;;;;1.45;1.05;;;14.90;69.50;;;;;;4976180;28;20110;-61
2020/12/15 00:57:20;;;;;;;1.73;1.15;;;14.90;69.50;;;;;;4976436;28;20110;-60
2020/12/15 00:59:46;;;;;;;1.13;0.82;;;14.90;69.40;;;;;;4976150;28;20053;-60
2020/12/15 01:02:12;;;;;;;0.80;0.80;;;14.90;69.40;;;;;;4976296;28;20027;-60
2020/12/15 01:04:37;;;;;;;1.42;0.98;;;14.90;69.40;;;;;;4976260;28;20078;-60
2020/12/15 01:07:03;;;;;;;2.55;1.48;;;14.90;69.40;;;;;;4976535;28;20497;-60
2020/12/15 01:09:29;;;;;;;1.13;0.95;;;14.90;69.40;;;;;;4958786;28;20034;-60
2020/12/15 01:11:56;;;;;;;1.85;1.08;;;14.90;69.40;;;;;;4976125;28;20055;-60
2020/12/15 01:14:22;;;;;;;2.63;0.90;;;14.90;69.40;;;;;;4975760;28;20034;-60
2020/12/15 01:16:47;;;;;;;1.73;0.93;;;14.90;69.40;;;;;;4976073;28;20031;-60
2020/12/15 01:19:13;;;;;;;1.80;1.08;;;14.90;69.40;;;;;;4975696;28;20102;-60
2020/12/15 01:21:39;;;;;;;1.45;0.85;;;14.90;69.40;;;;;;4975973;28;20023;-60
2020/12/15 01:24:04;;;;;;;2.30;1.00;;;14.90;69.40;;;;;;4975953;28;20019;-60
2020/12/15 01:26:30;;;;;;;1.98;1.10;;;14.80;69.30;;;;;;4975895;28;20030;-61
2020/12/15 01:28:55;;;;;;;2.60;1.20;;;14.80;69.30;;;;;;4976321;28;20026;-61
2020/12/15 01:31:25;;;;;;;1.80;1.15;;;14.80;69.30;;;;;;4975834;28;20361;-61
2020/12/15 01:33:52;;;;;;;1.75;1.10;;;14.80;69.30;;;;;;4975844;28;20018;-60
2020/12/15 01:36:30;;;;;;;1.67;1.10;;;14.80;69.30;;;;;;4975441;28;20492;-60
2020/12/15 01:38:55;;;;;;;1.17;0.68;;;14.80;69.20;;;;;;4975728;28;20156;-61
2020/12/15 01:41:21;;;;;;;1.85;0.98;;;14.80;69.30;;;;;;4975326;28;20110;-61
2020/12/15 01:43:58;;;;;;;1.30;1.00;;;14.80;69.30;;;;;;4975619;28;20030;-61
2020/12/15 01:46:24;;;;;;;2.70;1.20;;;14.80;69.20;;;;;;4975463;28;20385;-61
2020/12/15 01:48:51;;;;;;;1.75;1.27;;;14.80;69.20;;;;;;4975210;28;20027;-60
2020/12/15 01:51:17;;;;;;;1.10;1.00;;;15.50;69.60;;;;;;4975330;28;20037;-61
2020/12/15 01:53:45;;;;;;;1.10;1.00;;;14.80;69.20;;;;;;4975343;28;20031;-61
2020/12/15 01:56:11;;;;;;;1.92;1.20;;;14.80;69.20;;;;;;4975031;28;20058;-60
2020/12/15 01:58:40;;;;;;;1.10;1.00;;;14.80;69.20;;;;;;4974995;28;20023;-61
2020/12/15 02:01:06;;;;;;;1.52;1.15;;;14.80;69.30;;;;;;4974915;28;20082;-61
2020/12/15 02:03:31;;;;;;;1.65;1.05;;;14.80;69.20;;;;;;4975095;28;20019;-61
2020/12/15 02:05:57;;;;;;;1.52;1.40;;;14.80;69.20;;;;;;4975596;28;20049;-60
2020/12/15 02:08:23;;;;;;;1.08;0.98;;;14.80;69.20;;;;;;4975111;28;20046;-60
2020/12/15 02:10:48;;;;;;;1.48;1.23;;;14.80;69.20;;;;;;4975005;28;20062;-61
2020/12/15 02:13:22;;;;;;;1.30;1.20;;;14.80;69.20;;;;;;4974968;28;20058;-60
2020/12/15 02:15:49;;;;;;;2.00;1.15;;;14.70;69.10;;;;;;4974918;28;20388;-60
2020/12/15 02:18:14;;;;;;;1.50;1.00;;;14.80;69.20;;;;;;4975139;28;20022;-60
2020/12/15 02:20:46;;;;;;;1.15;1.00;;;14.70;69.70;;;;;;4974841;28;20437;-60
2020/12/15 02:23:12;;;;;;;1.10;0.90;;;14.70;69.10;;;;;;4974723;28;20019;-60
2020/12/15 02:25:37;;;;;;;1.50;1.08;;;14.80;69.10;;;;;;4974746;28;20015;-60
2020/12/15 02:28:03;;;;;;;1.42;0.80;;;14.80;69.10;;;;;;4974436;28;20351;-60
2020/12/15 02:30:29;;;;;;;1.58;1.23;;;14.80;69.10;;;;;;4974665;28;20027;-60
2020/12/15 02:32:54;;;;;;;1.15;1.05;;;14.80;69.10;;;;;;4974323;28;20465;-60
2020/12/15 02:35:20;;;;;;;1.75;0.85;;;14.70;69.00;;;;;;4974582;28;20114;-60
2020/12/15 02:37:46;;;;;;;1.45;1.13;;;14.80;69.10;;;;;;4974269;28;20490;-61
2020/12/15 02:40:12;;;;;;;1.08;1.08;;;14.70;69.00;;;;;;4974524;28;20031;-60
2020/12/15 02:42:37;;;;;;;0.93;0.70;;;14.70;69.00;;;;;;4974166;28;20548;-60
2020/12/15 02:45:03;;;;;;;1.52;1.13;;;14.70;69.00;;;;;;4956994;28;20041;-61
2020/12/15 02:47:29;;;;;;;1.27;1.17;;;14.70;69.00;;;;;;4974377;28;20050;-60
2020/12/15 02:49:54;;;;;;;1.90;1.00;;;14.70;69.00;;;;;;4974341;28;20035;-60
2020/12/15 02:52:20;;;;;;;2.67;0.80;;;14.70;69.00;;;;;;4973920;28;20019;-60
2020/12/15 02:54:47;;;;;;;1.65;1.08;;;14.70;69.00;;;;;;4974269;28;20128;-60
2020/12/15 02:57:14;;;;;;;2.38;1.05;;;14.70;69.00;;;;;;4973981;28;20168;-60
2020/12/15 02:59:39;;;;;;;0.70;0.70;;;14.70;69.00;;;;;;4974026;28;20031;-60
2020/12/15 03:02:05;;;;;;;1.33;1.08;;;14.70;69.60;;;;;;4973864;28;20029;-60
2020/12/15 03:04:30;;;;;;;1.55;1.00;;;14.70;69.00;;;;;;4973842;28;20057;-60
2020/12/15 03:06:56;;;;;;;1.42;0.90;;;14.70;69.00;;;;;;4973772;28;20058;-60
2020/12/15 03:09:22;;;;;;;1.00;0.90;;;14.70;69.00;;;;;;4973759;28;20025;-60
2020/12/15 03:11:47;;;;;;;1.60;1.13;;;14.70;69.00;;;;;;4974000;28;20087;-60
2020/12/15 03:14:13;;;;;;;1.52;0.93;;;14.70;68.90;;;;;;4974089;28;20014;-60
2020/12/15 03:16:38;;;;;;;1.50;1.23;;;14.70;68.90;;;;;;4973986;28;20491;-60
2020/12/15 03:19:04;;;;;;;1.17;0.90;;;14.70;68.90;;;;;;4974044;28;20114;-60
2020/12/15 03:21:35;;;;;;;1.30;0.85;;;14.70;69.00;;;;;;4973725;28;20029;-60
2020/12/15 03:24:02;;;;;;;1.25;0.90;;;14.50;69.00;;;;;;4973712;28;20389;-60
2020/12/15 03:26:28;;;;;;;0.70;0.70;;;14.70;68.90;;;;;;4956270;28;20015;-60
2020/12/15 03:28:53;;;;;;;1.63;1.13;;;14.70;68.90;;;;;;4973513;28;20029;-60
2020/12/15 03:31:19;;;;;;;1.95;0.95;;;14.70;68.90;;;;;;4973399;28;20121;-60
2020/12/15 03:33:46;;;;;;;1.05;0.98;;;14.60;68.90;;;;;;4973840;28;20034;-60
2020/12/15 03:36:11;;;;;;;1.08;0.95;;;14.70;68.90;;;;;;4973815;28;20093;-60
2020/12/15 03:38:37;;;;;;;1.50;1.00;;;14.70;68.90;;;;;;4973763;28;20026;-60
2020/12/15 03:41:02;;;;;;;1.00;0.90;;;14.70;68.90;;;;;;4973780;28;20037;-60
2020/12/15 03:43:28;;;;;;;1.30;0.98;;;14.70;68.90;;;;;;4973752;28;20048;-60
2020/12/15 03:45:54;;;;;;;1.27;1.00;;;14.70;68.90;;;;;;4973732;28;20058;-60
2020/12/15 03:48:19;;;;;;;2.65;1.20;;;14.70;68.90;;;;;;4973489;28;20026;-61
2020/12/15 03:50:45;;;;;;;1.58;1.17;;;14.60;68.80;;;;;;4973538;28;20034;-60
2020/12/15 03:53:10;;;;;;;0.88;0.85;;;14.60;68.80;;;;;;4973700;28;20034;-60
2020/12/15 03:55:36;;;;;;;1.30;0.93;;;14.60;68.80;;;;;;4973356;28;20130;-60
2020/12/15 03:58:02;;;;;;;1.20;1.10;;;14.60;68.80;;;;;;4973651;28;20019;-60
2020/12/15 04:00:27;;;;;;;0.88;0.75;;;14.60;68.80;;;;;;4973585;28;20033;-60
2020/12/15 04:02:53;;;;;;;1.10;1.00;;;14.60;68.80;;;;;;4973480;28;20046;-60
2020/12/15 04:05:18;;;;;;;1.70;0.93;;;14.70;68.80;;;;;;4975294;28;20026;-60
2020/12/15 04:07:44;;;;;;;1.95;1.13;;;14.60;68.80;;;;;;4977689;28;20520;-60
2020/12/15 04:10:10;;;;;;;2.65;1.00;;;14.60;68.80;;;;;;4976876;28;20389;-60
2020/12/15 04:12:36;;;;;;;1.73;1.00;;;14.60;68.70;;;;;;4977233;28;20026;-60
2020/12/15 04:15:06;;;;;;;1.55;1.02;;;14.60;68.80;;;;;;4976937;28;20481;-60
2020/12/15 04:17:36;;;;;;;1.75;1.17;;;14.70;68.80;;;;;;4977084;28;20125;-60
2020/12/15 04:20:04;;;;;;;1.00;0.90;;;14.70;68.80;;;;;;4977146;28;20027;-60
2020/12/15 04:22:29;;;;;;;1.75;1.10;;;14.60;68.70;;;;;;4977255;28;20019;-61
2020/12/15 04:24:55;;;;;;;2.25;0.90;;;14.60;68.80;;;;;;4976990;28;20023;-60
2020/12/15 04:27:28;;;;;;;1.83;0.95;;;14.60;68.80;;;;;;4976898;28;20105;-61
2020/12/15 04:29:53;;;;;;;1.13;1.02;;;14.60;68.80;;;;;;4976491;28;20030;-60
2020/12/15 04:32:19;;;;;;;1.10;1.00;;;14.60;68.80;;;;;;4976829;28;20023;-60
2020/12/15 04:34:45;;;;;;;1.63;1.08;;;14.60;68.80;;;;;;4976782;28;20019;-60
2020/12/15 04:37:10;;;;;;;1.23;0.82;;;14.60;68.70;;;;;;4976653;28;20026;-60
2020/12/15 04:39:36;;;;;;;1.50;0.98;;;14.60;68.80;;;;;;4976640;28;20417;-60
2020/12/15 04:42:02;;;;;;;1.40;1.27;;;14.60;68.80;;;;;;4976703;28;20476;-60
2020/12/15 04:44:28;;;;;;;1.25;1.00;;;14.60;68.80;;;;;;4976571;28;20027;-60
2020/12/15 04:47:19;;;;;;;1.52;1.08;;;14.60;68.80;;;;;;4976569;28;20031;-60
2020/12/15 04:50:07;;;;;;;0.80;0.80;;;14.60;68.70;;;;;;4976430;28;20031;-60
2020/12/15 04:52:58;;;;;;;1.45;1.02;;;14.60;68.80;;;;;;4976120;28;20031;-60
2020/12/15 04:55:25;;;;;;;1.80;1.00;;;14.60;68.70;;;;;;4958758;28;20022;-61
2020/12/15 04:57:59;;;;;;;1.25;1.00;;;14.60;68.70;;;;;;4976349;28;20082;-60
2020/12/15 05:00:24;;;;;;;1.35;1.05;;;14.60;68.70;;;;;;4976298;28;20022;-60
2020/12/15 05:02:53;;;;;;;2.13;1.17;;;14.60;68.70;;;;;;4976357;28;20529;-60
2020/12/15 05:05:29;;;;;;;1.15;0.80;;;14.60;68.60;;;;;;4976258;28;20023;-60
2020/12/15 05:08:00;;;;;;;1.33;1.05;;;14.60;68.70;;;;;;4975838;28;20518;-60
2020/12/15 05:10:26;;;;;;;1.00;1.00;;;14.60;68.60;;;;;;4976046;28;20038;-61
2020/12/15 05:12:51;;;;;;;1.52;0.90;;;14.60;68.70;;;;;;4976131;28;20034;-60
2020/12/15 05:15:18;;;;;;;1.33;0.93;;;14.60;68.70;;;;;;4975672;28;20034;-60
2020/12/15 05:17:45;;;;;;;1.52;1.00;;;14.50;68.60;;;;;;4976057;28;20385;-60
2020/12/15 05:20:27;;;;;;;1.00;1.00;;;14.50;68.50;;;;;;4975995;28;20424;-60
2020/12/15 05:22:53;;;;;;;1.38;1.27;;;14.50;68.50;;;;;;4976002;28;20031;-60
2020/12/15 05:25:23;;;;;;;1.30;1.17;;;14.50;68.50;;;;;;4975863;28;20445;-60
2020/12/15 05:27:48;;;;;;;2.95;1.00;;;14.70;68.60;;;;;;4975888;28;20074;-60
2020/12/15 05:30:14;;;;;;;1.25;0.80;;;14.50;68.50;;;;;;4975796;28;20034;-60
2020/12/15 05:32:54;;;;;;;1.83;1.20;;;14.50;68.50;;;;;;4975740;28;20121;-60
2020/12/15 05:35:31;;;;;;;1.20;0.82;;;14.50;68.50;;;;;;4975829;28;20026;-60
2020/12/15 05:37:58;;;;;;;1.10;0.95;;;14.50;68.50;;;;;;4975656;28;20424;-60
2020/12/15 05:40:24;;;;;;;1.10;0.90;;;14.50;68.50;;;;;;4975556;28;20015;-60
2020/12/15 05:43:00;;;;;;;1.20;1.10;;;14.50;68.50;;;;;;4975616;28;20034;-60
2020/12/15 05:45:27;;;;;;;1.17;0.90;;;14.50;68.50;;;;;;4975609;28;20027;-60
2020/12/15 05:48:08;;;;;;;1.52;1.08;;;14.50;68.50;;;;;;4975491;28;20035;-60
2020/12/15 05:50:40;;;;;;;1.27;1.17;;;14.50;68.50;;;;;;4975262;28;20039;-60
2020/12/15 05:53:07;;;;;;;1.67;1.10;;;14.50;68.50;;;;;;4975217;28;20015;-60
2020/12/15 05:55:33;;;;;;;0.85;0.82;;;14.50;68.50;;;;;;4975308;28;20057;-60
2020/12/15 05:58:00;;;;;;;1.10;1.00;;;14.60;68.60;;;;;;4975283;28;20086;-60
2020/12/15 06:00:27;;;;;;;0.90;0.80;;;14.50;68.50;;;;;;4974792;28;20034;-60
2020/12/15 06:03:00;;;;;;;1.05;0.95;;;14.50;68.50;;;;;;4974830;28;20022;-60
2020/12/15 06:05:28;;;;;;;1.30;1.05;;;14.60;68.60;;;;;;4974984;28;20433;-60
2020/12/15 06:07:55;;;;;;;1.02;0.80;;;14.50;68.50;;;;;;4958483;28;20482;-60
2020/12/15 06:10:21;;;;;;;1.40;1.10;;;14.50;68.60;;;;;;4974954;28;20027;-60
2020/12/15 06:12:51;;;;;;;1.38;1.00;;;14.60;68.90;;;;;;4975070;28;20054;-60
2020/12/15 06:15:18;;;;;;;1.50;1.10;;;14.60;68.90;;;;;;4974989;28;20022;-60
2020/12/15 06:17:53;;;;;;;1.02;0.90;;;14.60;68.50;;;;;;4974931;28;20038;-60
2020/12/15 06:20:19;;;;;;;1.35;1.10;;;14.70;68.60;;;;;;4974957;28;20061;-60
2020/12/15 06:22:55;;;;;;;1.33;1.05;;;14.70;68.60;;;;;;4974980;28;20376;-60
2020/12/15 06:25:31;;;;;;;1.13;1.02;;;14.70;68.60;;;;;;4974775;28;20035;-60
2020/12/15 06:28:03;;;;;;;1.77;1.10;;;14.80;68.70;;;;;;4973824;28;20019;-62
2020/12/15 06:30:31;;;;;;;1.98;0.98;;;14.80;68.70;;;;;;4974638;28;20035;-62
2020/12/15 06:33:05;;;;;;;3.83;1.40;;;14.80;68.70;;;;;;4974689;28;20038;-59
2020/12/15 06:35:31;;;;;;;1.75;0.77;;;14.80;68.70;;;;;;4974559;28;20038;-60
2020/12/15 06:37:57;;;;;;;1.40;1.00;;;14.90;68.70;;;;;;4974591;28;20023;-59
2020/12/15 06:40:23;;;;;;;1.10;1.00;;;14.90;68.70;;;;;;4974527;28;20381;-59
2020/12/15 06:42:51;;;;;;;2.20;0.98;;;14.90;68.70;;;;;;4974189;28;20015;-59
2020/12/15 06:45:22;;;;;;;2.05;0.95;;;14.90;68.70;;;;;;4974424;28;20034;-59
2020/12/15 06:47:59;;;;;;;1.83;1.15;;;14.90;68.70;;;;;;4974110;28;20027;-59
2020/12/15 06:50:25;;;;;;;1.23;1.10;;;15.00;69.40;;;;;;4974298;28;20114;-60
2020/12/15 06:52:51;;;;;;;1.27;1.10;;;14.90;68.80;;;;;;4974463;28;20023;-60
2020/12/15 06:55:29;;;;;;;1.75;0.98;;;15.30;69.10;;;;;;4974314;28;20034;-61
2020/12/15 06:58:02;;;;;;;1.42;1.10;;;15.00;69.00;;;;;;4974329;28;20023;-58
2020/12/15 07:00:36;;;;;;;1.63;1.23;;;15.00;69.10;;;;;;4972806;28;20033;-58
2020/12/15 07:03:03;;;;;;;1.75;1.10;;;15.00;69.10;;;;;;4972099;28;20468;-59
2020/12/15 07:05:29;;;;;;;1.23;0.98;;;15.10;69.10;;;;;;4973681;28;20031;-60
2020/12/15 07:07:57;;;;;;;1.58;1.00;;;15.10;69.10;;;;;;4974706;28;20054;-61
2020/12/15 07:10:26;;;;;;;1.48;1.05;;;15.00;68.90;;;;;;4974007;28;20121;-60
2020/12/15 07:12:52;;;;;;;1.95;1.00;;;15.10;69.60;;;;;;4974126;28;20023;-60
2020/12/15 07:15:20;;;;;;;5.55;0.98;;;15.00;68.90;;;;;;4973898;28;20029;-60
2020/12/15 07:17:47;;;;;;;1.65;1.13;;;15.10;69.30;;;;;;4973280;28;20038;-60
2020/12/15 07:20:14;;;;;;;1.23;0.90;;;15.10;69.20;;;;;;4972072;28;20027;-59
2020/12/15 07:22:40;;;;;;;1.85;1.20;;;15.10;69.30;;;;;;4971528;28;20023;-60
2020/12/15 07:25:06;;;;;;;6.15;1.08;;;15.10;69.30;;;;;;4972830;28;20528;-60
2020/12/15 07:27:33;;;;;;;1.63;1.08;;;15.10;69.30;;;;;;4973518;28;20063;-60
2020/12/15 07:30:02;;;;;;;1.85;1.25;;;15.10;69.20;;;;;;4973788;28;20086;-61
2020/12/15 07:32:28;;;;;;;2.08;0.98;;;15.10;69.20;;;;;;4972571;28;20034;-62
2020/12/15 07:35:03;;;;;;;2.28;0.90;;;15.00;69.10;;;;;;4971892;28;20379;-60
2020/12/15 07:37:29;;;;;;;2.40;0.82;;;15.00;69.00;;;;;;4972359;28;20023;-61
2020/12/15 07:40:01;;;;;;;2.15;1.35;;;15.00;69.00;;;;;;4975957;28;20038;-61
2020/12/15 07:42:26;;;;;;;3.20;1.30;;;15.00;69.00;;;;;;4977264;28;20025;-60
2020/12/15 07:44:57;;;;;;;1.95;1.10;;;15.00;68.90;;;;;;4977153;28;20026;-61
2020/12/15 07:47:24;;;;;;;3.03;1.17;;;15.00;69.00;;;;;;4975898;28;20055;-61
2020/12/15 07:49:55;;;;;;;2.30;1.10;;;14.90;69.00;;;;;;4975921;28;20094;-61
2020/12/15 07:52:31;;;;;;;1.42;1.00;;;14.90;69.00;;;;;;4976765;28;20037;-61
2020/12/15 07:55:14;;;;;;;3.85;1.58;;;14.90;69.00;;;;;;4976417;28;20019;-61
2020/12/15 07:57:41;;;;;;;1.40;0.85;;;14.90;69.00;;;;;;4977316;28;20033;-60
2020/12/15 08:00:08;;;;;;;3.08;1.13;;;14.90;69.00;;;;;;4977413;28;20433;-61
2020/12/15 08:02:34;;;;;;;1.17;1.08;;;15.10;69.10;;;;;;4977325;28;20023;-61
2020/12/15 08:05:09;;;;;;;3.33;1.38;;;15.50;68.40;;;;;;4977192;28;20027;-61
2020/12/15 08:07:41;;;;;;;2.13;0.80;;;15.70;67.40;;;;;;4977067;28;20062;-60
2020/12/15 08:10:07;;;;;;;1.85;0.98;;;16.00;66.90;;;;;;4977321;28;20034;-59
2020/12/15 08:12:34;;;;;;;1.20;1.10;;;16.20;66.50;;;;;;4977077;28;20038;-60
2020/12/15 08:15:00;;;;;;;1.30;1.00;;;16.40;65.90;;;;;;4977303;28;20027;-61
2020/12/15 08:17:29;;;;;;;1.15;0.85;;;16.60;65.60;;;;;;4976792;28;20034;-61
2020/12/15 08:20:04;;;;;;;1.92;1.10;;;16.70;65.30;;;;;;4977210;28;20031;-61
2020/12/15 08:22:31;;;;;;;2.25;0.82;;;16.80;65.00;;;;;;4977101;28;20018;-61
2020/12/15 08:24:57;;;;;;;5.30;1.00;;;17.00;64.90;;;;;;4977149;28;20027;-61
2020/12/15 08:27:24;;;;;;;1.27;0.77;;;17.20;64.70;;;;;;4976993;28;20031;-61
2020/12/15 08:29:50;;;;;;;2.17;1.30;;;17.30;64.20;;;;;;4976813;28;20038;-61
2020/12/15 08:32:25;;;;;;;1.40;1.10;;;17.60;63.70;;;;;;4976900;28;20015;-61
2020/12/15 08:35:01;;;;;;;1.15;0.77;;;17.80;63.10;;;;;;4976822;28;20114;-61
2020/12/15 08:37:28;;;;;;;2.67;1.13;;;18.00;62.60;;;;;;4958987;28;20023;-61
2020/12/15 08:39:54;;;;;;;2.97;1.00;;;18.00;62.40;;;;;;4976527;28;20503;-61
2020/12/15 08:42:20;;;;;;;1.40;0.80;;;18.00;62.70;;;;;;4976728;28;20380;-61
2020/12/15 08:44:46;;;;;;;1.95;0.85;;;17.80;63.00;;;;;;4976725;28;20019;-61
2020/12/15 08:47:16;;;;;;;3.33;1.35;;;17.70;63.60;;;;;;4976303;28;20050;-61
2020/12/15 08:49:41;;;;;;;1.08;0.98;;;17.50;64.10;;;;;;4976468;28;20353;-61
2020/12/15 08:52:07;;;;;;;1.73;1.30;;;17.40;64.40;;;;;;4975865;28;20033;-61
2020/12/15 08:54:42;;;;;;;1.20;1.08;;;17.20;64.70;;;;;;4976462;28;20061;-61
2020/12/15 08:57:15;;;;;;;2.67;0.95;;;17.10;65.00;;;;;;4976506;28;20037;-62
2020/12/15 08:59:41;;;;;;;3.28;1.10;;;17.00;65.30;;;;;;4976367;28;20026;-62
2020/12/15 09:02:08;;;;;;;2.53;1.20;;;16.90;65.40;;;;;;4976218;28;20030;-60
2020/12/15 09:04:34;;;;;;;3.22;0.90;;;16.80;65.50;;;;;;4976241;28;20019;-60
2020/12/15 09:07:10;;;;;;;1.65;1.25;;;16.80;65.70;;;;;;4976150;28;20229;-60
2020/12/15 09:09:35;;;;;;;3.05;1.35;;;16.70;65.70;;;;;;4975948;28;20429;-60
2020/12/15 09:12:01;;;;;;;1.85;1.40;;;16.70;65.80;;;;;;4976182;28;20105;-67
2020/12/15 09:14:26;;;;;;;1.38;1.00;;;16.60;65.90;;;;;;4976153;28;20022;-61
2020/12/15 09:16:52;;;;;;;1.95;1.17;;;16.50;66.00;;;;;;4975803;28;20477;-60
2020/12/15 09:19:23;;;;;;;1.92;1.17;;;16.50;66.30;;;;;;4975822;28;20102;-60
2020/12/15 09:21:58;;;;;;;1.25;1.13;;;16.50;66.30;;;;;;4976073;28;20038;-60
2020/12/15 09:24:23;;;;;;;1.83;1.48;;;16.40;66.50;;;;;;4975992;28;20027;-60
2020/12/15 09:26:49;;;;;;;5.20;1.50;;;16.40;66.70;;;;;;4975563;28;20111;-60
2020/12/15 09:29:15;;;;;;;3.80;1.08;;;16.40;66.90;;;;;;4975852;28;20034;-60
2020/12/15 09:31:40;;;;;;;2.08;1.17;;;16.30;67.00;;;;;;4975780;28;20030;-60
2020/12/15 09:34:06;;;;;;;5.40;1.23;;;16.30;67.40;;;;;;4975793;28;20034;-60
2020/12/15 09:36:32;;;;;;;3.50;1.08;;;16.30;67.40;;;;;;4975695;28;20053;-60
2020/12/15 09:38:58;;;;;;;1.38;0.80;;;16.20;67.40;;;;;;4975637;28;20077;-60
2020/12/15 09:41:23;;;;;;;5.47;1.30;;;16.20;67.40;;;;;;4975596;28;20477;-60
2020/12/15 09:43:49;;;;;;;4.18;1.20;;;16.20;67.40;;;;;;4975579;28;20105;-60
2020/12/15 09:46:15;;;;;;;2.63;1.10;;;16.10;67.20;;;;;;4975566;28;20477;-60
2020/12/15 09:48:40;;;;;;;3.35;1.17;;;16.10;67.20;;;;;;4975536;28;20019;-60
2020/12/15 09:51:06;;;;;;;3.25;1.13;;;16.10;67.00;;;;;;4975077;28;20401;-60
2020/12/15 09:53:32;;;;;;;2.63;1.08;;;16.00;66.80;;;;;;4975421;28;20026;-60
2020/12/15 09:55:58;;;;;;;4.60;1.50;;;16.10;67.60;;;;;;4975341;28;20110;-59
2020/12/15 09:58:23;;;;;;;1.75;1.25;;;16.00;67.50;;;;;;4975238;28;20027;-60
2020/12/15 10:00:49;;;;;;;7.28;1.42;;;16.00;67.50;;;;;;4975004;28;20036;-60
2020/12/15 10:03:15;;;;;;;2.50;1.42;;;16.00;67.60;;;;;;4974154;28;20491;-61
2020/12/15 10:05:41;;;;;;;2.13;1.58;;;15.90;67.50;;;;;;4975190;28;20023;-61
2020/12/15 10:08:07;;;;;;;2.40;1.42;;;16.00;67.50;;;;;;4974924;28;20050;-61
2020/12/15 10:10:33;;;;;;;2.50;1.42;;;15.90;67.30;;;;;;4975053;28;20038;-60
2020/12/15 10:12:59;;;;;;;2.30;1.85;;;15.90;67.20;;;;;;4974778;28;20027;-61
2020/12/15 10:15:26;;;;;;;4.53;1.85;;;15.90;67.20;;;;;;4975031;28;20113;-60
2020/12/15 10:17:52;;;;;;;2.72;1.60;;;15.90;67.30;;;;;;4974961;28;20022;-60
2020/12/15 10:20:17;;;;;;;2.13;1.40;;;15.80;67.20;;;;;;4974998;28;20046;-60
2020/12/15 10:22:43;;;;;;;7.47;1.83;;;15.80;67.10;;;;;;4974873;28;20469;-60
2020/12/15 10:25:09;;;;;;;6.35;2.22;;;15.80;67.30;;;;;;4974790;28;20058;-61
2020/12/15 10:27:34;;;;;;;7.95;1.90;;;15.80;67.30;;;;;;4974870;28;20030;-61
2020/12/15 10:30:01;;;;;;;4.10;2.00;;;15.80;67.30;;;;;;4974378;28;20097;-61
2020/12/15 10:32:26;;;;;;;5.38;1.85;;;15.80;67.40;;;;;;4974300;28;20090;-60
2020/12/15 10:34:52;;;;;;;3.60;1.83;;;15.80;67.60;;;;;;4975167;28;20022;-61
2020/12/15 10:37:22;;;;;;;3.58;1.90;;;15.70;67.40;;;;;;4973916;28;20500;-60
2020/12/15 10:39:48;;;;;;;4.07;1.92;;;15.70;67.40;;;;;;4974568;28;20074;-61
2020/12/15 10:42:14;;;;;;;1.98;1.55;;;15.70;67.50;;;;;;4974569;28;20413;-60
2020/12/15 10:44:40;;;;;;;2.22;2.00;;;15.70;67.40;;;;;;4974454;28;20023;-60
2020/12/15 10:47:06;;;;;;;3.13;1.88;;;15.60;67.50;;;;;;4974456;28;20023;-60
2020/12/15 10:49:31;;;;;;;3.88;2.40;;;15.70;67.50;;;;;;4974092;28;20078;-59
2020/12/15 10:51:57;;;;;;;6.25;2.30;;;15.60;67.50;;;;;;4973999;28;20062;-60
2020/12/15 10:54:24;;;;;;;3.78;1.77;;;15.60;67.70;;;;;;4972846;28;20034;-60
2020/12/15 10:56:50;;;;;;;2.83;2.50;;;15.60;67.50;;;;;;4973665;28;20057;-60
2020/12/15 10:59:15;;;;;;;5.32;2.22;;;15.60;67.50;;;;;;4973980;28;20062;-60
2020/12/15 11:01:41;;;;;;;5.75;2.17;;;15.60;67.50;;;;;;4974007;28;20023;-61
2020/12/15 11:04:07;;;;;;;2.83;2.53;;;15.60;67.50;;;;;;4974482;28;20031;-60
2020/12/15 11:06:40;;;;;;;3.20;2.20;;;15.60;67.50;;;;;;4974135;28;20023;-60
2020/12/15 11:09:05;;;;;;;3.58;2.67;;;15.60;67.60;;;;;;4973421;28;20497;-61
2020/12/15 11:11:31;;;;;;;2.33;2.10;;;15.50;67.50;;;;;;4974101;28;20125;-60
2020/12/15 11:13:56;;;;;;;4.85;2.55;;;15.50;67.60;;;;;;4973504;28;20469;-60
2020/12/15 11:16:22;;;;;;;7.30;2.03;;;15.50;67.50;;;;;;4973852;28;20039;-61
2020/12/15 11:18:48;;;;;;;3.30;2.47;;;15.60;67.60;;;;;;4974067;28;20118;-60
2020/12/15 11:21:14;;;;;;;4.55;2.70;;;15.50;67.60;;;;;;4973982;28;20074;-60
2020/12/15 11:23:40;;;;;;;4.13;2.80;;;15.50;67.60;;;;;;4974014;28;20413;-60
2020/12/15 11:26:06;;;;;;;4.13;2.50;;;15.50;67.60;;;;;;4973769;28;20038;-60
2020/12/15 11:28:31;;;;;;;3.60;2.47;;;15.40;67.50;;;;;;4973610;28;20074;-60
2020/12/15 11:30:57;;;;;;;3.88;2.33;;;15.50;67.60;;;;;;4973458;28;20042;-60
2020/12/15 11:33:23;;;;;;;4.57;2.47;;;15.40;67.50;;;;;;4973595;28;20118;-60
2020/12/15 11:35:50;;;;;;;3.67;2.35;;;15.50;67.60;;;;;;4973559;28;20034;-60
2020/12/15 11:38:17;;;;;;;3.10;2.03;;;15.40;67.60;;;;;;4973872;28;20027;-60
2020/12/15 11:40:43;;;;;;;3.70;2.42;;;15.40;67.60;;;;;;4973812;28;20101;-60
2020/12/15 11:43:09;;;;;;;3.35;2.47;;;15.50;67.70;;;;;;4973517;28;20452;-60
2020/12/15 11:45:34;;;;;;;6.97;2.90;;;15.40;67.70;;;;;;4973487;28;20031;-60
2020/12/15 11:48:00;;;;;;;6.15;3.08;;;15.40;67.80;;;;;;4973764;28;20051;-60
2020/12/15 11:50:28;;;;;;;2.45;2.25;;;15.40;67.70;;;;;;4973316;28;20524;-60
2020/12/15 11:52:55;;;;;;;4.25;2.58;;;15.30;67.70;;;;;;4973601;28;20030;-60
2020/12/15 11:55:22;;;;;;;4.57;2.60;;;15.30;67.70;;;;;;4973606;28;20027;-60
2020/12/15 11:57:50;;;;;;;3.55;2.60;;;15.30;67.70;;;;;;4973610;28;20026;-60
2020/12/15 12:00:16;;;;;;;4.57;2.60;;;15.30;68.40;;;;;;4973560;28;20026;-60
2020/12/15 12:02:42;;;;;;;4.75;3.10;;;15.30;67.80;;;;;;4973624;28;20397;-60
2020/12/15 12:05:07;;;;;;;3.28;2.40;;;15.30;67.80;;;;;;4973119;28;20389;-60
2020/12/15 12:07:33;;;;;;;3.95;2.60;;;15.30;67.80;;;;;;4973846;28;20062;-60
2020/12/15 12:09:58;;;;;;;2.92;2.45;;;15.30;67.80;;;;;;4973129;28;20031;-60
2020/12/15 12:12:24;;;;;;;3.50;2.45;;;15.30;67.90;;;;;;4973426;28;20039;-60
2020/12/15 12:14:49;;;;;;;2.72;2.42;;;15.20;67.80;;;;;;4973446;28;20041;-60
2020/12/15 12:17:15;;;;;;;3.78;2.90;;;15.30;67.80;;;;;;4973457;28;20034;-60
2020/12/15 12:19:41;;;;;;;2.95;2.58;;;15.30;67.90;;;;;;4973382;28;20023;-60
2020/12/15 12:22:06;;;;;;;2.80;2.35;;;15.20;67.90;;;;;;4973386;28;20085;-60
2020/12/15 12:24:32;;;;;;;5.38;2.70;;;15.20;67.80;;;;;;4973152;28;20031;-60
2020/12/15 12:27:00;;;;;;;2.85;2.35;;;15.20;67.90;;;;;;4976022;28;20469;-60
2020/12/15 12:29:26;;;;;;;4.97;2.60;;;15.20;67.80;;;;;;4977105;28;20149;-61
2020/12/15 12:31:51;;;;;;;5.75;2.53;;;15.20;68.30;;;;;;4976803;28;20050;-60
2020/12/15 12:34:17;;;;;;;4.10;3.00;;;15.20;68.00;;;;;;4976892;28;20019;-60
2020/12/15 12:36:43;;;;;;;5.07;3.03;;;15.20;68.00;;;;;;4976870;28;20035;-61
2020/12/15 12:39:09;;;;;;;3.63;2.60;;;15.20;68.00;;;;;;4976736;28;20400;-60
2020/12/15 12:41:35;;;;;;;3.78;2.72;;;15.20;68.00;;;;;;4976570;28;20027;-60
2020/12/15 12:44:01;;;;;;;3.00;2.47;;;15.20;68.00;;;;;;4976530;28;20095;-61
2020/12/15 12:46:26;;;;;;;4.68;2.60;;;15.20;67.90;;;;;;4976135;28;20025;-60
2020/12/15 12:48:52;;;;;;;3.58;2.60;;;15.20;68.00;;;;;;4976373;28;20062;-59